Time;durP1;ratioP1;P1;durP2;ratioP2;P2;SDS_P1;SDS_P2;PMS_P1;PMS_P2;Temp;Humidity;BMP_temperature;BMP_pressure;BME280_temperature;BME280_humidity;BME280_pressure;Samples;Min_cycle;Max_cycle;Signal;HPM_P1;HPM_P2
2022/07/08 00:00:01;;;;;;;;;;;;;;;;;;5135406;27;817;-68
2022/07/08 00:02:26;;;;;;;;;;;;;;;;;;5135768;27;852;-67
2022/07/08 00:04:52;;;;;;;;;;;;;;;;;;5134479;27;789;-66
2022/07/08 00:07:17;;;;;;;;;;;;;;;;;;5135553;27;878;-67
2022/07/08 00:09:42;;;;;;;;;;;;;;;;;;5135209;27;1965;-66
2022/07/08 00:12:07;;;;;;;;;;;;;;;;;;5135203;27;872;-67
2022/07/08 00:14:33;;;;;;;;;;;;;;;;;;5135089;27;955;-67
2022/07/08 00:16:58;;;;;;;;;;;;;;;;;;5135077;27;987;-67
2022/07/08 00:19:23;;;;;;;;;;;;;;;;;;5135418;27;931;-67
2022/07/08 00:21:49;;;;;;;;;;;;;;;;;;5135007;27;1026;-67
2022/07/08 00:24:15;;;;;;;;;;;;;;;;;;5135096;27;875;-67
2022/07/08 00:26:40;;;;;;;;;;;;;;;;;;5133330;27;919;-67
2022/07/08 00:29:06;;;;;;;;;;;;;;;;;;5134110;27;1006;-67
2022/07/08 00:31:31;;;;;;;;;;;;;;;;;;5134914;27;1960;-67
2022/07/08 00:33:57;;;;;;;;;;;;;;;;;;5134224;27;1031;-67
2022/07/08 00:36:22;;;;;;;;;;;;;;;;;;5135112;27;801;-66
2022/07/08 00:38:47;;;;;;;;;;;;;;;;;;5134328;27;808;-67
2022/07/08 00:41:14;;;;;;;;;;;;;;;;;;5133288;27;1075;-67
2022/07/08 00:43:41;;;;;;;;;;;;;;;;;;5134742;27;895;-66
2022/07/08 00:46:10;;;;;;;;;;;;;;;;;;5132961;27;887;-67
2022/07/08 00:48:36;;;;;;;;;;;;;;;;;;5134964;27;847;-66
2022/07/08 00:51:03;;;;;;;;;;;;;;;;;;5132771;27;1894;-67
2022/07/08 00:53:29;;;;;;;;;;;;;;;;;;5134387;27;812;-66
2022/07/08 00:55:55;;;;;;;;;;;;;;;;;;5133600;27;859;-66
2022/07/08 00:58:21;;;;;;;;;;;;;;;;;;5134590;27;887;-67
2022/07/08 01:00:47;;;;;;;;;;;;;;;;;;5134373;27;887;-67
2022/07/08 01:03:12;;;;;;;;;;;;;;;;;;5133544;27;919;-67
2022/07/08 01:05:37;;;;;;;;;;;;;;;;;;5135246;27;955;-67
2022/07/08 01:08:03;;;;;;;;;;;;;;;;;;5134915;27;840;-67
2022/07/08 01:10:29;;;;;;;;;;;;;;;;;;5135782;27;1909;-67
2022/07/08 01:12:55;;;;;;;;;;;;;;;;;;5134791;27;892;-67
2022/07/08 01:15:22;;;;;;;;;;;;;;;;;;5135764;27;942;-67
2022/07/08 01:17:48;;;;;;;;;;;;;;;;;;5135244;27;891;-67
2022/07/08 01:20:13;;;;;;;;;;;;;;;;;;5135450;27;831;-67
2022/07/08 01:22:39;;;;;;;;;;;;;;;;;;5136014;27;1026;-67
2022/07/08 01:25:05;;;;;;;;;;;;;;;;;;5134684;27;1050;-67
2022/07/08 01:27:30;;;;;;;;;;;;;;;;;;5135762;27;848;-67
2022/07/08 01:29:56;;;;;;;;;;;;;;;;;;5135115;27;1953;-67
2022/07/08 01:32:21;;;;;;;;;;;;;;;;;;5134628;27;837;-67
2022/07/08 01:34:46;;;;;;;;;;;;;;;;;;5135229;27;1049;-67
2022/07/08 01:37:12;;;;;;;;;;;;;;;;;;5134720;27;830;-67
2022/07/08 01:39:37;;;;;;;;;;;;;;;;;;5133716;27;899;-67
2022/07/08 01:42:02;;;;;;;;;;;;;;;;;;5132927;27;1291;-67
2022/07/08 01:44:27;;;;;;;;;;;;;;;;;;5133409;27;894;-67
2022/07/08 01:46:53;;;;;;;;;;;;;;;;;;5132732;27;907;-67
2022/07/08 01:49:19;;;;;;;;;;;;;;;;;;5133340;27;1886;-67
2022/07/08 01:51:45;;;;;;;;;;;;;;;;;;5132851;27;902;-67
2022/07/08 01:54:10;;;;;;;;;;;;;;;;;;5133039;27;820;-67
2022/07/08 01:56:35;;;;;;;;;;;;;;;;;;5133267;27;895;-67
2022/07/08 01:59:00;;;;;;;;;;;;;;;;;;5132899;27;816;-67
2022/07/08 02:01:26;;;;;;;;;;;;;;;;;;5132643;27;828;-67
2022/07/08 02:03:51;;;;;;;;;;;;;;;;;;5132735;27;892;-67
2022/07/08 02:06:16;;;;;;;;;;;;;;;;;;5133203;27;967;-67
2022/07/08 02:08:41;;;;;;;;;;;;;;;;;;5133279;27;943;-68
2022/07/08 02:13:50;;;;;;;;;;;;;;;;;;5132854;27;666;-67
2022/07/08 02:16:16;;;;;;;;;;;;;;;;;;5132831;27;789;-67
2022/07/08 02:18:41;;;;;;;;;;;;;;;;;;5133113;27;839;-67
2022/07/08 02:21:06;;;;;;;;;;;;;;;;;;5132438;27;852;-67
2022/07/08 02:23:32;;;;;;;;;;;;;;;;;;5132864;27;781;-67
2022/07/08 02:25:57;;;;;;;;;;;;;;;;;;5132190;27;1101;-67
2022/07/08 02:28:22;;;;;;;;;;;;;;;;;;5131639;27;964;-67
2022/07/08 02:30:48;;;;;;;;;;;;;;;;;;5132424;27;1897;-67
2022/07/08 02:33:13;;;;;;;;;;;;;;;;;;5114216;27;864;-67
2022/07/08 02:35:38;;;;;;;;;;;;;;;;;;5132452;27;567;-67
2022/07/08 02:38:03;;;;;;;;;;;;;;;;;;5130896;27;1198;-67
2022/07/08 02:40:29;;;;;;;;;;;;;;;;;;5132991;27;896;-67
2022/07/08 02:42:55;;;;;;;;;;;;;;;;;;5131897;28;1079;-67
2022/07/08 02:45:20;;;;;;;;;;;;;;;;;;5133330;28;1002;-67
2022/07/08 02:47:45;;;;;;;;;;;;;;;;;;5132831;27;1368;-66
2022/07/08 02:50:11;;;;;;;;;;;;;;;;;;5133660;28;1902;-67
2022/07/08 02:52:36;;;;;;;;;;;;;;;;;;5132881;27;907;-67
2022/07/08 02:55:02;;;;;;;;;;;;;;;;;;5132926;27;856;-67
2022/07/08 02:57:27;;;;;;;;;;;;;;;;;;5133284;28;837;-67
2022/07/08 02:59:52;;;;;;;;;;;;;;;;;;5132002;27;844;-67
2022/07/08 03:02:17;;;;;;;;;;;;;;;;;;5132367;28;994;-67
2022/07/08 03:04:43;;;;;;;;;;;;;;;;;;5132191;27;829;-67
2022/07/08 03:07:08;;;;;;;;;;;;;;;;;;5132308;27;940;-67
2022/07/08 03:09:33;;;;;;;;;;;;;;;;;;5132512;27;1905;-67
2022/07/08 03:11:59;;;;;;;;;;;;;;;;;;5131634;27;1030;-67
2022/07/08 03:14:24;;;;;;;;;;;;;;;;;;5136883;27;833;-67
2022/07/08 03:16:49;;;;;;;;;;;;;;;;;;5136132;27;883;-67
2022/07/08 03:19:14;;;;;;;;;;;;;;;;;;5136315;27;816;-67
2022/07/08 03:21:40;;;;;;;;;;;;;;;;;;5136505;27;851;-67
2022/07/08 03:24:05;;;;;;;;;;;;;;;;;;5135683;27;1007;-67
2022/07/08 03:26:30;;;;;;;;;;;;;;;;;;5136013;27;864;-67
2022/07/08 03:28:55;;;;;;;;;;;;;;;;;;5135455;27;870;-67
2022/07/08 03:31:21;;;;;;;;;;;;;;;;;;5134713;27;1973;-67
2022/07/08 03:33:46;;;;;;;;;;;;;;;;;;5136003;27;912;-67
2022/07/08 03:36:11;;;;;;;;;;;;;;;;;;5135358;27;847;-67
2022/07/08 03:38:37;;;;;;;;;;;;;;;;;;5135991;27;863;-67
2022/07/08 03:41:20;;;;;;;;;;;;;;;;;;5134851;27;1051;-67
2022/07/08 03:43:46;;;;;;;;;;;;;;;;;;5135946;27;860;-67
2022/07/08 03:46:11;;;;;;;;;;;;;;;;;;5135369;27;1029;-67
2022/07/08 03:48:36;;;;;;;;;;;;;;;;;;5135994;27;887;-67
2022/07/08 03:51:02;;;;;;;;;;;;;;;;;;5135022;27;1927;-67
2022/07/08 03:53:27;;;;;;;;;;;;;;;;;;5134537;27;804;-67
2022/07/08 03:55:53;;;;;;;;;;;;;;;;;;5134931;27;919;-67
2022/07/08 03:58:18;;;;;;;;;;;;;;;;;;5135640;27;848;-67
2022/07/08 04:00:44;;;;;;;;;;;;;;;;;;5135656;27;1031;-67
2022/07/08 04:03:09;;;;;;;;;;;;;;;;;;5135074;27;883;-66
2022/07/08 04:05:34;;;;;;;;;;;;;;;;;;5135159;27;939;-67
2022/07/08 04:08:00;;;;;;;;;;;;;;;;;;5135163;27;753;-67
2022/07/08 04:10:25;;;;;;;;;;;;;;;;;;5133977;27;1903;-67
2022/07/08 04:12:50;;;;;;;;;;;;;;;;;;5134894;27;872;-67
2022/07/08 04:15:17;;;;;;;;;;;;;;;;;;5135269;27;995;-67
2022/07/08 04:17:42;;;;;;;;;;;;;;;;;;5135240;27;883;-67
2022/07/08 04:20:08;;;;;;;;;;;;;;;;;;5135411;27;833;-67
2022/07/08 04:22:33;;;;;;;;;;;;;;;;;;5136315;27;859;-67
2022/07/08 04:24:58;;;;;;;;;;;;;;;;;;5134259;27;1050;-67
2022/07/08 04:27:23;;;;;;;;;;;;;;;;;;5135071;27;875;-67
2022/07/08 04:29:48;;;;;;;;;;;;;;;;;;5135529;27;1902;-67
2022/07/08 04:32:14;;;;;;;;;;;;;;;;;;5135349;27;883;-67
2022/07/08 04:34:39;;;;;;;;;;;;;;;;;;5135918;27;1009;-67
2022/07/08 04:37:04;;;;;;;;;;;;;;;;;;5134647;27;892;-67
2022/07/08 04:39:30;;;;;;;;;;;;;;;;;;5134328;27;885;-67
2022/07/08 04:41:55;;;;;;;;;;;;;;;;;;5133771;27;1095;-67
2022/07/08 04:44:20;;;;;;;;;;;;;;;;;;5134641;27;994;-67
2022/07/08 04:46:45;;;;;;;;;;;;;;;;;;5135172;27;624;-67
2022/07/08 04:49:11;;;;;;;;;;;;;;;;;;5133852;27;994;-67
2022/07/08 04:51:36;;;;;;;;;;;;;;;;;;5133303;27;1910;-67
2022/07/08 04:54:01;;;;;;;;;;;;;;;;;;5134159;27;888;-67
2022/07/08 04:56:27;;;;;;;;;;;;;;;;;;5134368;27;836;-67
2022/07/08 04:58:52;;;;;;;;;;;;;;;;;;5133726;27;935;-67
2022/07/08 05:01:18;;;;;;;;;;;;;;;;;;5134402;27;947;-67
2022/07/08 05:03:43;;;;;;;;;;;;;;;;;;5134469;27;866;-67
2022/07/08 05:06:08;;;;;;;;;;;;;;;;;;5134172;27;875;-68
2022/07/08 05:08:33;;;;;;;;;;;;;;;;;;5134170;27;857;-67
2022/07/08 05:10:59;;;;;;;;;;;;;;;;;;5133915;27;1898;-67
2022/07/08 05:13:24;;;;;;;;;;;;;;;;;;5133691;27;871;-68
2022/07/08 05:15:49;;;;;;;;;;;;;;;;;;5133617;27;1038;-67
2022/07/08 05:18:15;;;;;;;;;;;;;;;;;;5133644;27;1123;-68
2022/07/08 05:20:40;;;;;;;;;;;;;;;;;;5134023;27;832;-67
2022/07/08 05:23:05;;;;;;;;;;;;;;;;;;5133580;27;1157;-68
2022/07/08 05:25:30;;;;;;;;;;;;;;;;;;5133747;27;1010;-67
2022/07/08 05:27:56;;;;;;;;;;;;;;;;;;5133050;27;983;-68
2022/07/08 05:30:21;;;;;;;;;;;;;;;;;;5133619;27;1897;-68
2022/07/08 05:32:46;;;;;;;;;;;;;;;;;;5134409;27;998;-67
2022/07/08 05:35:12;;;;;;;;;;;;;;;;;;5133153;27;1045;-67
2022/07/08 05:37:38;;;;;;;;;;;;;;;;;;5132497;27;817;-67
2022/07/08 05:40:06;;;;;;;;;;;;;;;;;;5133497;27;1044;-68
2022/07/08 05:42:32;;;;;;;;;;;;;;;;;;5133187;27;1397;-68
2022/07/08 05:44:57;;;;;;;;;;;;;;;;;;5133335;27;582;-67
2022/07/08 05:47:22;;;;;;;;;;;;;;;;;;5133629;27;879;-68
2022/07/08 05:49:48;;;;;;;;;;;;;;;;;;5133667;27;1960;-67
2022/07/08 05:52:13;;;;;;;;;;;;;;;;;;5133282;27;880;-67
2022/07/08 05:54:38;;;;;;;;;;;;;;;;;;5132693;27;1595;-67
2022/07/08 05:57:04;;;;;;;;;;;;;;;;;;5133109;27;883;-67
2022/07/08 05:59:29;;;;;;;;;;;;;;;;;;5133352;27;915;-67
2022/07/08 06:01:55;;;;;;;;;;;;;;;;;;5133174;27;990;-68
2022/07/08 06:04:20;;;;;;;;;;;;;;;;;;5134829;27;815;-68
2022/07/08 06:06:45;;;;;;;;;;;;;;;;;;5132542;27;1062;-68
2022/07/08 06:09:11;;;;;;;;;;;;;;;;;;5135034;27;1102;-67
2022/07/08 06:11:37;;;;;;;;;;;;;;;;;;5134073;27;1905;-66
2022/07/08 06:14:02;;;;;;;;;;;;;;;;;;5133502;27;871;-66
2022/07/08 06:16:27;;;;;;;;;;;;;;;;;;5134345;27;848;-66
2022/07/08 06:18:53;;;;;;;;;;;;;;;;;;5133230;27;977;-66
2022/07/08 06:21:18;;;;;;;;;;;;;;;;;;5133131;27;1039;-66
2022/07/08 06:23:43;;;;;;;;;;;;;;;;;;5133088;27;1002;-67
2022/07/08 06:26:10;;;;;;;;;;;;;;;;;;5131427;27;899;-67
2022/07/08 06:28:35;;;;;;;;;;;;;;;;;;5132571;27;871;-67
2022/07/08 06:31:00;;;;;;;;;;;;;;;;;;5132800;27;1969;-67
2022/07/08 06:33:26;;;;;;;;;;;;;;;;;;5131545;27;895;-67
2022/07/08 06:35:51;;;;;;;;;;;;;;;;;;5132264;27;967;-66
2022/07/08 06:38:16;;;;;;;;;;;;;;;;;;5133229;27;902;-67
2022/07/08 06:40:41;;;;;;;;;;;;;;;;;;5131425;27;1043;-67
2022/07/08 06:43:07;;;;;;;;;;;;;;;;;;5132119;27;1341;-67
2022/07/08 06:45:32;;;;;;;;;;;;;;;;;;5132787;27;819;-67
2022/07/08 06:47:58;;;;;;;;;;;;;;;;;;5134561;27;1050;-67
2022/07/08 06:50:23;;;;;;;;;;;;;;;;;;5136764;27;1917;-67
2022/07/08 06:52:49;;;;;;;;;;;;;;;;;;5137557;27;974;-67
2022/07/08 06:55:14;;;;;;;;;;;;;;;;;;5136511;27;983;-67
2022/07/08 06:57:39;;;;;;;;;;;;;;;;;;5136925;27;895;-67
2022/07/08 07:00:05;;;;;;;;;;;;;;;;;;5136292;27;880;-67
2022/07/08 07:02:31;;;;;;;;;;;;;;;;;;5136670;27;867;-67
2022/07/08 07:04:56;;;;;;;;;;;;;;;;;;5136148;27;844;-67
2022/07/08 07:07:21;;;;;;;;;;;;;;;;;;5136669;27;1802;-67
2022/07/08 07:09:47;;;;;;;;;;;;;;;;;;5136436;27;1905;-67
2022/07/08 07:12:12;;;;;;;;;;;;;;;;;;5136515;27;768;-66
2022/07/08 07:14:37;;;;;;;;;;;;;;;;;;5136813;27;883;-66
2022/07/08 07:17:03;;;;;;;;;;;;;;;;;;5136918;27;754;-66
2022/07/08 07:19:28;;;;;;;;;;;;;;;;;;5136839;27;899;-66
2022/07/08 07:21:54;;;;;;;;;;;;;;;;;;5136481;27;872;-66
2022/07/08 07:24:20;;;;;;;;;;;;;;;;;;5137071;27;902;-66
2022/07/08 07:26:46;;;;;;;;;;;;;;;;;;5137099;27;1012;-66
2022/07/08 07:29:11;;;;;;;;;;;;;;;;;;5136624;27;919;-66
2022/07/08 07:31:36;;;;;;;;;;;;;;;;;;5137360;27;1897;-66
2022/07/08 07:34:02;;;;;;;;;;;;;;;;;;5136226;27;876;-66
2022/07/08 07:36:27;;;;;;;;;;;;;;;;;;5136482;27;919;-66
2022/07/08 07:38:53;;;;;;;;;;;;;;;;;;5134614;27;832;-66
2022/07/08 07:41:19;;;;;;;;;;;;;;;;;;5136951;27;906;-66
2022/07/08 07:43:44;;;;;;;;;;;;;;;;;;5136224;27;1083;-66
2022/07/08 07:46:10;;;;;;;;;;;;;;;;;;5136620;27;904;-66
2022/07/08 07:48:35;;;;;;;;;;;;;;;;;;5137326;27;973;-66
2022/07/08 07:51:00;;;;;;;;;;;;;;;;;;5136901;27;1970;-66
2022/07/08 07:53:26;;;;;;;;;;;;;;;;;;5137015;27;868;-66
2022/07/08 07:55:51;;;;;;;;;;;;;;;;;;5135887;27;862;-66
2022/07/08 07:58:17;;;;;;;;;;;;;;;;;;5135980;27;987;-66
2022/07/08 08:00:42;;;;;;;;;;;;;;;;;;5135144;27;950;-66
2022/07/08 08:03:07;;;;;;;;;;;;;;;;;;5135153;27;985;-67
2022/07/08 08:05:32;;;;;;;;;;;;;;;;;;5134169;27;777;-66
2022/07/08 08:07:59;;;;;;;;;;;;;;;;;;5134762;27;825;-67
2022/07/08 08:10:24;;;;;;;;;;;;;;;;;;5135280;27;1909;-67
2022/07/08 08:12:49;;;;;;;;;;;;;;;;;;5135120;27;950;-67
2022/07/08 08:15:14;;;;;;;;;;;;;;;;;;5135338;27;919;-67
2022/07/08 08:17:40;;;;;;;;;;;;;;;;;;5135235;27;828;-67
2022/07/08 08:20:07;;;;;;;;;;;;;;;;;;5133217;27;793;-67
2022/07/08 08:22:32;;;;;;;;;;;;;;;;;;5135334;27;1076;-67
2022/07/08 08:24:58;;;;;;;;;;;;;;;;;;5134774;27;824;-67
2022/07/08 08:27:23;;;;;;;;;;;;;;;;;;5135096;27;824;-67
2022/07/08 08:29:49;;;;;;;;;;;;;;;;;;5134777;27;1885;-67
2022/07/08 08:32:14;;;;;;;;;;;;;;;;;;5134502;27;1185;-67
2022/07/08 08:34:39;;;;;;;;;;;;;;;;;;5135228;27;867;-67
2022/07/08 08:37:05;;;;;;;;;;;;;;;;;;5134536;27;652;-66
2022/07/08 08:39:30;;;;;;;;;;;;;;;;;;5134976;27;789;-67
2022/07/08 08:41:55;;;;;;;;;;;;;;;;;;5133914;27;1110;-67
2022/07/08 08:44:21;;;;;;;;;;;;;;;;;;5134905;27;820;-67
2022/07/08 08:46:46;;;;;;;;;;;;;;;;;;5134515;27;962;-68
2022/07/08 08:49:13;;;;;;;;;;;;;;;;;;5133880;27;907;-67
2022/07/08 08:51:39;;;;;;;;;;;;;;;;;;5134743;27;1918;-67
2022/07/08 08:54:06;;;;;;;;;;;;;;;;;;5134367;27;769;-67
2022/07/08 08:56:31;;;;;;;;;;;;;;;;;;5134967;27;831;-67
2022/07/08 08:58:58;;;;;;;;;;;;;;;;;;5133524;27;812;-67
2022/07/08 09:01:23;;;;;;;;;;;;;;;;;;5134485;27;951;-67
2022/07/08 09:03:48;;;;;;;;;;;;;;;;;;5134223;27;898;-68
2022/07/08 09:06:14;;;;;;;;;;;;;;;;;;5133968;27;918;-68
2022/07/08 09:08:39;;;;;;;;;;;;;;;;;;5134195;27;892;-67
2022/07/08 09:11:05;;;;;;;;;;;;;;;;;;5133399;27;1951;-68
2022/07/08 09:13:30;;;;;;;;;;;;;;;;;;5134621;27;878;-67
2022/07/08 09:15:58;;;;;;;;;;;;;;;;;;5133650;27;1014;-67
2022/07/08 09:18:27;;;;;;;;;;;;;;;;;;5134600;27;876;-68
2022/07/08 09:20:53;;;;;;;;;;;;;;;;;;5133701;27;965;-67
2022/07/08 09:23:22;;;;;;;;;;;;;;;;;;5135022;27;879;-67
2022/07/08 09:25:48;;;;;;;;;;;;;;;;;;5134042;27;1064;-67
2022/07/08 09:28:15;;;;;;;;;;;;;;;;;;5134832;27;911;-67
2022/07/08 09:30:42;;;;;;;;;;;;;;;;;;5134346;27;1971;-68
2022/07/08 09:33:08;;;;;;;;;;;;;;;;;;5134410;27;994;-67
2022/07/08 09:35:35;;;;;;;;;;;;;;;;;;5135025;27;899;-67
2022/07/08 09:38:01;;;;;;;;;;;;;;;;;;5133805;27;982;-68
2022/07/08 09:40:27;;;;;;;;;;;;;;;;;;5133785;27;1141;-67
2022/07/08 09:42:52;;;;;;;;;;;;;;;;;;5131589;27;1401;-67
2022/07/08 09:45:17;;;;;;;;;;;;;;;;;;5132173;27;820;-67
2022/07/08 09:47:42;;;;;;;;;;;;;;;;;;5132965;27;848;-67
2022/07/08 09:50:08;;;;;;;;;;;;;;;;;;5132617;27;1910;-67
2022/07/08 09:52:34;;;;;;;;;;;;;;;;;;5133344;27;1002;-68
2022/07/08 09:55:01;;;;;;;;;;;;;;;;;;5132251;27;1002;-68
2022/07/08 09:57:27;;;;;;;;;;;;;;;;;;5133226;27;893;-68
2022/07/08 09:59:53;;;;;;;;;;;;;;;;;;5132762;27;820;-67
2022/07/08 10:02:19;;;;;;;;;;;;;;;;;;5132962;27;924;-67
2022/07/08 10:04:44;;;;;;;;;;;;;;;;;;5133713;27;824;-68
2022/07/08 10:07:09;;;;;;;;;;;;;;;;;;5131193;27;872;-67
2022/07/08 10:09:35;;;;;;;;;;;;;;;;;;5131845;27;872;-67
2022/07/08 10:12:00;;;;;;;;;;;;;;;;;;5132120;27;1945;-67
2022/07/08 10:14:26;;;;;;;;;;;;;;;;;;5132955;27;816;-67
2022/07/08 10:16:52;;;;;;;;;;;;;;;;;;5132531;27;1045;-67
2022/07/08 10:19:21;;;;;;;;;;;;;;;;;;5132518;27;859;-67
2022/07/08 10:21:50;;;;;;;;;;;;;;;;;;5132147;27;967;-66
2022/07/08 10:24:17;;;;;;;;;;;;;;;;;;5132881;27;1134;-66
2022/07/08 10:26:43;;;;;;;;;;;;;;;;;;5132897;27;880;-66
2022/07/08 10:29:11;;;;;;;;;;;;;;;;;;5131019;27;876;-66
2022/07/08 10:31:41;;;;;;;;;;;;;;;;;;5132761;27;1970;-67
2022/07/08 10:34:07;;;;;;;;;;;;;;;;;;5132126;27;935;-67
2022/07/08 10:36:40;;;;;;;;;;;;;;;;;;5132650;27;1099;-66
2022/07/08 10:39:05;;;;;;;;;;;;;;;;;;5132431;27;856;-66
2022/07/08 10:41:31;;;;;;;;;;;;;;;;;;5132669;27;879;-67
2022/07/08 10:44:01;;;;;;;;;;;;;;;;;;5132105;27;1331;-66
2022/07/08 10:46:27;;;;;;;;;;;;;;;;;;5133208;27;889;-66
2022/07/08 10:48:53;;;;;;;;;;;;;;;;;;5132529;27;1033;-66
2022/07/08 10:51:19;;;;;;;;;;;;;;;;;;5132639;27;1894;-67
2022/07/08 10:53:47;;;;;;;;;;;;;;;;;;5132449;27;887;-67
2022/07/08 10:56:32;;;;;;;;;;;;;;;;;;5132352;27;859;-66
2022/07/08 10:59:30;;;;;;;;;;;;;;;;;;5131870;27;1882;-66
2022/07/08 11:02:03;;;;;;;;;;;;;;;;;;5085427;28;1186;-66
2022/07/08 11:04:29;;;;;;;;;;;;;;;;;;5132364;27;867;-66
2022/07/08 11:06:56;;;;;;;;;;;;;;;;;;5131765;27;863;-66
2022/07/08 11:09:23;;;;;;;;;;;;;;;;;;5133463;27;824;-66
2022/07/08 11:11:49;;;;;;;;;;;;;;;;;;5132452;27;1970;-67
2022/07/08 11:14:14;;;;;;;;;;;;;;;;;;5132699;27;773;-67
2022/07/08 11:16:40;;;;;;;;;;;;;;;;;;5132898;27;901;-67
2022/07/08 11:19:06;;;;;;;;;;;;;;;;;;5132055;27;812;-66
2022/07/08 11:21:31;;;;;;;;;;;;;;;;;;5132771;27;927;-66
2022/07/08 11:23:56;;;;;;;;;;;;;;;;;;5132538;27;915;-66
2022/07/08 11:26:22;;;;;;;;;;;;;;;;;;5132631;27;1018;-66
2022/07/08 11:28:47;;;;;;;;;;;;;;;;;;5132217;28;1507;-68
2022/07/08 11:31:23;;;;;;;;;;;;;;;;;;5131986;27;1980;-68
2022/07/08 11:33:48;;;;;;;;;;;;;;;;;;5134142;27;919;-67
2022/07/08 11:36:17;;;;;;;;;;;;;;;;;;5135395;27;835;-68
2022/07/08 11:38:42;;;;;;;;;;;;;;;;;;5135602;27;845;-68
2022/07/08 11:41:07;;;;;;;;;;;;;;;;;;5135091;27;1221;-66
2022/07/08 11:43:33;;;;;;;;;;;;;;;;;;5134230;27;1813;-66
2022/07/08 11:45:58;;;;;;;;;;;;;;;;;;5134785;27;1213;-66
2022/07/08 11:48:34;;;;;;;;;;;;;;;;;;5135432;27;808;-68
2022/07/08 11:51:00;;;;;;;;;;;;;;;;;;5134630;27;1992;-67
2022/07/08 11:53:25;;;;;;;;;;;;;;;;;;5135417;27;702;-67
2022/07/08 11:55:50;;;;;;;;;;;;;;;;;;5135668;27;867;-67
2022/07/08 11:58:22;;;;;;;;;;;;;;;;;;5115162;27;1186;-67
2022/07/08 12:00:48;;;;;;;;;;;;;;;;;;5115521;27;843;-67
2022/07/08 12:03:13;;;;;;;;;;;;;;;;;;5114006;27;907;-67
2022/07/08 12:05:38;;;;;;;;;;;;;;;;;;5115333;28;888;-67
2022/07/08 12:08:10;;;;;;;;;;;;;;;;;;5114388;28;883;-67
2022/07/08 12:10:35;;;;;;;;;;;;;;;;;;5114678;28;1970;-67
2022/07/08 12:13:01;;;;;;;;;;;;;;;;;;5114045;28;860;-67
2022/07/08 12:15:32;;;;;;;;;;;;;;;;;;5113082;28;824;-67
2022/07/08 12:17:58;;;;;;;;;;;;;;;;;;5114386;28;915;-67
2022/07/08 12:20:37;;;;;;;;;;;;;;;;;;5114463;28;911;-67
2022/07/08 12:23:03;;;;;;;;;;;;;;;;;;5114068;28;828;-67
2022/07/08 12:25:44;;;;;;;;;;;;;;;;;;5114609;28;861;-67
2022/07/08 12:28:09;;;;;;;;;;;;;;;;;;5113852;28;887;-67
2022/07/08 12:30:34;;;;;;;;;;;;;;;;;;5114687;27;1910;-67
2022/07/08 12:33:01;;;;;;;;;;;;;;;;;;5113926;28;978;-67
2022/07/08 12:35:30;;;;;;;;;;;;;;;;;;5114184;28;887;-67
2022/07/08 12:38:05;;;;;;;;;;;;;;;;;;5114405;27;808;-67
2022/07/08 12:40:38;;;;;;;;;;;;;;;;;;5114404;28;919;-67
2022/07/08 12:43:04;;;;;;;;;;;;;;;;;;5113355;27;1152;-67
2022/07/08 12:45:29;;;;;;;;;;;;;;;;;;5113581;28;906;-67
2022/07/08 12:47:55;;;;;;;;;;;;;;;;;;5114129;28;906;-66
2022/07/08 12:50:23;;;;;;;;;;;;;;;;;;5113403;28;1969;-67
2022/07/08 12:52:48;;;;;;;;;;;;;;;;;;5114120;28;938;-66
2022/07/08 12:55:13;;;;;;;;;;;;;;;;;;5113998;28;820;-66
2022/07/08 12:57:39;;;;;;;;;;;;;;;;;;5114865;28;871;-66
2022/07/08 13:00:04;;;;;;;;;;;;;;;;;;5114163;28;837;-67
2022/07/08 13:02:30;;;;;;;;;;;;;;;;;;5114501;28;907;-67
2022/07/08 13:04:55;;;;;;;;;;;;;;;;;;5113916;28;800;-66
2022/07/08 13:07:20;;;;;;;;;;;;;;;;;;5114320;28;847;-66
2022/07/08 13:09:46;;;;;;;;;;;;;;;;;;5114308;28;1953;-66
2022/07/08 13:12:11;;;;;;;;;;;;;;;;;;5114413;28;864;-67
2022/07/08 13:14:36;;;;;;;;;;;;;;;;;;5112534;28;844;-67
2022/07/08 13:17:02;;;;;;;;;;;;;;;;;;5111411;28;876;-67
2022/07/08 13:19:27;;;;;;;;;;;;;;;;;;5113072;28;1080;-67
2022/07/08 13:21:52;;;;;;;;;;;;;;;;;;5113187;28;1002;-66
2022/07/08 13:24:17;;;;;;;;;;;;;;;;;;5112139;28;821;-67
2022/07/08 13:26:43;;;;;;;;;;;;;;;;;;5112612;28;828;-67
2022/07/08 13:29:08;;;;;;;;;;;;;;;;;;5112474;28;982;-67
2022/07/08 13:31:33;;;;;;;;;;;;;;;;;;5112829;28;1901;-67
2022/07/08 13:33:59;;;;;;;;;;;;;;;;;;5112225;28;836;-66
2022/07/08 13:36:25;;;;;;;;;;;;;;;;;;5112754;28;946;-66
2022/07/08 13:38:50;;;;;;;;;;;;;;;;;;5111698;28;1150;-66
2022/07/08 13:41:15;;;;;;;;;;;;;;;;;;5112335;28;1023;-66
2022/07/08 13:43:41;;;;;;;;;;;;;;;;;;5111725;28;1317;-66
2022/07/08 13:46:06;;;;;;;;;;;;;;;;;;5112261;28;1017;-67
2022/07/08 13:48:32;;;;;;;;;;;;;;;;;;5112975;28;899;-67
2022/07/08 13:50:57;;;;;;;;;;;;;;;;;;5112116;28;1967;-66
2022/07/08 13:53:22;;;;;;;;;;;;;;;;;;5112591;28;1038;-67
2022/07/08 13:55:48;;;;;;;;;;;;;;;;;;5111610;28;959;-66
2022/07/08 13:58:13;;;;;;;;;;;;;;;;;;5111408;28;891;-66
2022/07/08 14:00:38;;;;;;;;;;;;;;;;;;5113259;28;817;-67
2022/07/08 14:03:05;;;;;;;;;;;;;;;;;;5110761;28;785;-67
2022/07/08 14:05:31;;;;;;;;;;;;;;;;;;5110885;28;1547;-67
2022/07/08 14:07:56;;;;;;;;;;;;;;;;;;5111901;28;990;-67
2022/07/08 14:10:21;;;;;;;;;;;;;;;;;;5111804;28;1905;-66
2022/07/08 14:12:46;;;;;;;;;;;;;;;;;;5112471;28;824;-67
2022/07/08 14:15:12;;;;;;;;;;;;;;;;;;5111633;28;928;-66
2022/07/08 14:17:37;;;;;;;;;;;;;;;;;;5112065;28;1002;-67
2022/07/08 14:20:03;;;;;;;;;;;;;;;;;;5111514;28;847;-66
2022/07/08 14:22:28;;;;;;;;;;;;;;;;;;5110330;28;857;-67
2022/07/08 14:24:53;;;;;;;;;;;;;;;;;;5111762;28;825;-67
2022/07/08 14:27:19;;;;;;;;;;;;;;;;;;5111902;28;864;-66
2022/07/08 14:29:44;;;;;;;;;;;;;;;;;;5113049;28;994;-67
2022/07/08 14:32:09;;;;;;;;;;;;;;;;;;5111871;28;1961;-67
2022/07/08 14:34:35;;;;;;;;;;;;;;;;;;5112573;28;876;-67
2022/07/08 14:37:00;;;;;;;;;;;;;;;;;;5111800;28;932;-66
2022/07/08 14:39:26;;;;;;;;;;;;;;;;;;5112169;28;953;-67
2022/07/08 14:41:51;;;;;;;;;;;;;;;;;;5110498;28;1057;-66
2022/07/08 14:44:16;;;;;;;;;;;;;;;;;;5112217;28;804;-66
2022/07/08 14:46:41;;;;;;;;;;;;;;;;;;5111295;28;876;-67
2022/07/08 14:49:07;;;;;;;;;;;;;;;;;;5110743;28;879;-66
2022/07/08 14:51:32;;;;;;;;;;;;;;;;;;5109939;28;1973;-66
2022/07/08 14:53:57;;;;;;;;;;;;;;;;;;5110515;28;884;-67
2022/07/08 14:56:22;;;;;;;;;;;;;;;;;;5109450;28;880;-66
2022/07/08 14:58:48;;;;;;;;;;;;;;;;;;5111098;28;915;-67
2022/07/08 15:01:13;;;;;;;;;;;;;;;;;;5110765;28;967;-67
2022/07/08 15:03:38;;;;;;;;;;;;;;;;;;5111290;28;880;-67
2022/07/08 15:06:04;;;;;;;;;;;;;;;;;;5110487;28;851;-67
2022/07/08 15:08:29;;;;;;;;;;;;;;;;;;5110980;28;1415;-67
2022/07/08 15:10:55;;;;;;;;;;;;;;;;;;5114061;28;1901;-67
2022/07/08 15:13:20;;;;;;;;;;;;;;;;;;5115146;28;959;-66
2022/07/08 15:15:46;;;;;;;;;;;;;;;;;;5115167;28;681;-67
2022/07/08 15:18:11;;;;;;;;;;;;;;;;;;5114901;28;765;-67
2022/07/08 15:20:37;;;;;;;;;;;;;;;;;;5115207;28;959;-67
2022/07/08 15:23:02;;;;;;;;;;;;;;;;;;5113244;28;1295;-67
2022/07/08 15:25:27;;;;;;;;;;;;;;;;;;5114942;28;812;-67
2022/07/08 15:27:53;;;;;;;;;;;;;;;;;;5115124;28;900;-67
2022/07/08 15:30:18;;;;;;;;;;;;;;;;;;5114889;28;1953;-67
2022/07/08 15:32:43;;;;;;;;;;;;;;;;;;5114939;28;998;-67
2022/07/08 15:35:08;;;;;;;;;;;;;;;;;;5114686;28;884;-67
2022/07/08 15:37:33;;;;;;;;;;;;;;;;;;5114997;28;979;-67
2022/07/08 15:40:00;;;;;;;;;;;;;;;;;;5115135;28;833;-67
2022/07/08 15:42:26;;;;;;;;;;;;;;;;;;5114852;28;1044;-67
2022/07/08 15:44:51;;;;;;;;;;;;;;;;;;5115072;28;820;-67
2022/07/08 15:47:17;;;;;;;;;;;;;;;;;;5114425;28;856;-67
2022/07/08 15:49:42;;;;;;;;;;;;;;;;;;5114762;28;896;-67
2022/07/08 15:52:08;;;;;;;;;;;;;;;;;;5114474;28;1977;-67
2022/07/08 15:54:33;;;;;;;;;;;;;;;;;;5113517;28;1173;-67
2022/07/08 15:56:59;;;;;;;;;;;;;;;;;;5114702;28;836;-67
2022/07/08 15:59:25;;;;;;;;;;;;;;;;;;5115190;28;872;-67
2022/07/08 16:01:50;;;;;;;;;;;;;;;;;;5114219;28;1013;-67
2022/07/08 16:04:15;;;;;;;;;;;;;;;;;;5114201;28;837;-66
2022/07/08 16:06:41;;;;;;;;;;;;;;;;;;5114887;28;746;-67
2022/07/08 16:09:06;;;;;;;;;;;;;;;;;;5113125;28;789;-67
2022/07/08 16:11:31;;;;;;;;;;;;;;;;;;5114411;28;1945;-67
2022/07/08 16:13:57;;;;;;;;;;;;;;;;;;5113041;28;880;-67
2022/07/08 16:16:22;;;;;;;;;;;;;;;;;;5113946;28;820;-67
2022/07/08 16:18:48;;;;;;;;;;;;;;;;;;5114406;27;955;-67
2022/07/08 16:21:13;;;;;;;;;;;;;;;;;;5114011;28;1006;-66
2022/07/08 16:23:38;;;;;;;;;;;;;;;;;;5114961;28;1258;-67
2022/07/08 16:26:04;;;;;;;;;;;;;;;;;;5114461;28;876;-66
2022/07/08 16:28:29;;;;;;;;;;;;;;;;;;5115140;28;872;-67
2022/07/08 16:30:54;;;;;;;;;;;;;;;;;;5114132;28;1915;-67
2022/07/08 16:33:20;;;;;;;;;;;;;;;;;;5115176;28;982;-67
2022/07/08 16:35:45;;;;;;;;;;;;;;;;;;5114563;28;828;-67
2022/07/08 16:38:10;;;;;;;;;;;;;;;;;;5114093;28;1070;-67
2022/07/08 16:40:35;;;;;;;;;;;;;;;;;;5114137;27;841;-67
2022/07/08 16:43:01;;;;;;;;;;;;;;;;;;5113014;28;1280;-67
2022/07/08 16:45:26;;;;;;;;;;;;;;;;;;5113509;27;873;-67
2022/07/08 16:47:52;;;;;;;;;;;;;;;;;;5113595;28;828;-66
2022/07/08 16:50:17;;;;;;;;;;;;;;;;;;5112017;28;1902;-67
2022/07/08 16:52:42;;;;;;;;;;;;;;;;;;5113079;28;1228;-67
2022/07/08 16:55:08;;;;;;;;;;;;;;;;;;5113757;28;952;-67
2022/07/08 16:57:33;;;;;;;;;;;;;;;;;;5113887;28;828;-67
2022/07/08 16:59:59;;;;;;;;;;;;;;;;;;5111787;28;821;-67
2022/07/08 17:02:25;;;;;;;;;;;;;;;;;;5113461;28;825;-67
2022/07/08 17:04:51;;;;;;;;;;;;;;;;;;5113518;28;852;-67
2022/07/08 17:07:16;;;;;;;;;;;;;;;;;;5113023;28;919;-67